Time,TemperatureF,DewpointF,PressureIn,WindDirection,WindDirectionDegrees,WindSpeedMPH,WindSpeedGustMPH,Humidity,HourlyPrecipIn,Conditions,Clouds,dailyrainin,SoftwareType,DateUTC
2013-08-16 00:00:00,70.0,62.8,29.83,SW,225,0.0,3.0,78,0.00,,,0.00,Weather View 32 v70,2013-08-16 07:00:00,
2013-08-16 00:30:00,67.0,63.0,29.83,SW,225,0.0,3.0,87,0.00,,,0.00,Weather View 32 v70,2013-08-16 07:30:00,
2013-08-16 01:00:00,66.0,64.2,29.82,ESE,112,0.0,4.0,94,0.00,,,0.00,Weather View 32 v70,2013-08-16 08:00:00,
2013-08-16 01:30:00,64.0,62.5,29.82,South,180,0.0,4.0,95,0.00,,,0.00,Weather View 32 v70,2013-08-16 08:30:00,
2013-08-16 02:00:00,65.0,63.2,29.81,SSW,202,0.0,0.0,94,0.00,,,0.00,Weather View 32 v70,2013-08-16 09:00:00,
2013-08-16 02:30:00,65.0,62.9,29.81,SSW,202,0.0,0.0,93,0.00,,,0.00,Weather View 32 v70,2013-08-16 09:30:00,
2013-08-16 03:00:00,64.0,61.9,29.81,SSW,202,0.0,0.0,93,0.00,,,0.00,Weather View 32 v70,2013-08-16 10:00:00,
2013-08-16 03:30:00,63.0,57.1,29.81,SSW,202,0.0,0.0,81,0.00,,,0.00,Weather View 32 v70,2013-08-16 10:30:00,
2013-08-16 04:00:00,63.0,56.0,29.81,SSW,202,0.0,0.0,78,0.00,,,0.00,Weather View 32 v70,2013-08-16 11:00:00,
2013-08-16 04:30:00,62.0,52.8,29.81,SSW,202,0.0,0.0,72,0.00,,,0.00,Weather View 32 v70,2013-08-16 11:30:00,
2013-08-16 05:00:00,62.0,34.7,29.81,SSW,202,0.0,0.0,36,0.00,,,0.00,Weather View 32 v70,2013-08-16 12:00:00,
2013-08-16 05:30:00,61.0,-20.6,29.81,ESE,112,0.0,0.0,3,0.00,,,0.00,Weather View 32 v70,2013-08-16 12:30:00,
2013-08-16 06:00:00,61.0,3.9,29.82,SE,135,0.0,3.0,10,0.00,,,0.00,Weather View 32 v70,2013-08-16 13:00:00,
2013-08-16 06:30:00,61.0,-6.8,29.83,SE,135,0.0,3.0,6,0.00,,,0.00,Weather View 32 v70,2013-08-16 13:30:00,
2013-08-16 07:00:00,62.0,-27.5,29.85,SE,135,0.0,2.0,2,0.00,,,0.00,Weather View 32 v70,2013-08-16 14:00:00,
2013-08-16 07:30:00,66.0,19.8,29.87,SSE,157,0.0,0.0,17,0.00,,,0.00,Weather View 32 v70,2013-08-16 14:30:00,
2013-08-16 08:00:00,68.0,60.9,29.89,SSE,157,3.0,6.0,78,0.00,,,0.00,Weather View 32 v70,2013-08-16 15:00:00,
2013-08-16 08:30:00,74.0,70.5,29.92,South,180,0.0,6.0,89,0.00,,,0.00,Weather View 32 v70,2013-08-16 15:30:00,
2013-08-16 09:00:00,73.0,68.9,29.93,ESE,112,6.0,7.0,87,0.00,,,0.00,Weather View 32 v70,2013-08-16 16:00:00,
2013-08-16 09:30:00,78.0,69.8,29.94,SSE,157,2.0,9.0,76,0.00,,,0.00,Weather View 32 v70,2013-08-16 16:30:00,
2013-08-16 10:00:00,81.0,67.6,29.96,South,180,0.0,10.0,64,0.00,,,0.00,Weather View 32 v70,2013-08-16 17:00:00,
2013-08-16 10:30:00,83.0,66.1,29.97,SSE,157,7.0,10.0,57,0.00,,,0.00,Weather View 32 v70,2013-08-16 17:30:00,
2013-08-16 11:00:00,84.0,64.4,29.98,SW,225,0.0,10.0,52,0.00,,,0.00,Weather View 32 v70,2013-08-16 18:00:00,
2013-08-16 11:30:00,85.0,63.6,29.98,SW,225,4.0,11.0,49,0.00,,,0.00,Weather View 32 v70,2013-08-16 18:30:00,
2013-08-16 12:00:00,86.0,63.3,29.98,WSW,247,0.0,11.0,47,0.00,,,0.00,Weather View 32 v70,2013-08-16 19:00:00,
2013-08-16 12:30:00,87.0,61.7,29.97,SSE,157,6.0,12.0,43,0.00,,,0.00,Weather View 32 v70,2013-08-16 19:30:00,
2013-08-16 13:00:00,92.0,62.6,29.97,SSE,157,0.0,12.0,38,0.00,,,0.00,Weather View 32 v70,2013-08-16 20:00:00,
2013-08-16 13:30:00,93.0,60.4,29.98,West,270,0.0,8.0,34,0.00,,,0.00,Weather View 32 v70,2013-08-16 20:30:00,
2013-08-16 14:30:00,96.0,61.3,29.97,West,270,0.0,0.0,32,0.00,,,0.00,Weather View 32 v70,2013-08-16 21:30:00,
2013-08-16 15:00:00,96.0,63.0,29.97,WNW,292,3.0,3.0,34,0.00,,,0.00,Weather View 32 v70,2013-08-16 22:00:00,
2013-08-16 15:30:00,95.0,57.6,29.96,WNW,292,4.0,11.0,29,0.00,,,0.00,Weather View 32 v70,2013-08-16 22:30:00,
2013-08-16 16:00:00,96.0,54.4,29.95,NW,315,0.0,11.0,25,0.00,,,0.00,Weather View 32 v70,2013-08-16 23:00:00,
2013-08-16 16:30:00,96.0,57.5,29.94,NNW,337,6.0,13.0,28,0.00,,,0.00,Weather View 32 v70,2013-08-16 23:30:00,
2013-08-16 17:00:00,97.0,58.4,29.94,NNW,337,4.0,13.0,28,0.00,,,0.00,Weather View 32 v70,2013-08-17 00:00:00,
2013-08-16 17:30:00,97.0,58.4,29.93,WNW,292,0.0,13.0,28,0.00,,,0.00,Weather View 32 v70,2013-08-17 00:30:00,
2013-08-16 18:00:00,95.0,53.5,29.92,WNW,292,6.0,13.0,25,0.00,,,0.00,Weather View 32 v70,2013-08-17 01:00:00,
2013-08-16 18:30:00,95.0,52.4,29.91,WNW,292,0.0,10.0,24,0.00,,,0.00,Weather View 32 v70,2013-08-17 01:30:00,
2013-08-16 19:00:00,94.0,53.8,29.91,WNW,292,1.0,9.0,26,0.00,,,0.00,Weather View 32 v70,2013-08-17 02:00:00,
2013-08-16 19:30:00,91.0,56.1,29.90,WNW,292,0.0,8.0,31,0.00,,,0.00,Weather View 32 v70,2013-08-17 02:30:00,
2013-08-16 20:00:00,86.0,57.3,29.89,WNW,292,2.0,6.0,38,0.00,,,0.00,Weather View 32 v70,2013-08-17 03:00:00,
2013-08-16 20:30:00,84.0,60.9,29.88,WNW,292,0.0,6.0,46,0.00,,,0.00,Weather View 32 v70,2013-08-17 03:30:00,
2013-08-16 21:00:00,81.0,61.7,29.87,West,270,0.0,6.0,52,0.00,,,0.00,Weather View 32 v70,2013-08-17 04:00:00,
2013-08-16 21:30:00,79.0,61.4,29.87,WNW,292,0.0,5.0,55,0.00,,,0.00,Weather View 32 v70,2013-08-17 04:30:00,
2013-08-16 22:00:00,77.0,60.0,29.87,WNW,292,0.0,5.0,56,0.00,,,0.00,Weather View 32 v70,2013-08-17 05:00:00,
2013-08-16 22:30:00,77.0,59.5,29.87,WSW,247,2.0,3.0,55,0.00,,,0.00,Weather View 32 v70,2013-08-17 05:30:00,
2013-08-16 23:00:00,76.0,59.1,29.87,WSW,247,0.0,4.0,56,0.00,,,0.00,Weather View 32 v70,2013-08-17 06:00:00,
2013-08-16 23:30:00,73.0,60.5,29.86,WSW,247,2.0,4.0,65,0.00,,,0.00,Weather View 32 v70,2013-08-17 06:30:00,